Incentive — ZCOF2 — position and weather

sailwx.info

Track history (hours):
 
Tides and Currents Weather Stations Pressure Air Temp Water Temp Dewpoint Dewpoint Depression Visibility Wind Speed Wind Dir Waves Ship Positions

Incentive

Last reported at 2018-Jun-22 11:34 UTC. Time now 2018-Jun-23 15:47 UTC.
Position N 39°23' W 074°26'.

Length 43 m; draft 2.5 m.

Type: Pleasure craft. MMSI: 319795000.

Date/timePositionNaut miles runAvg speedWind from/ knotsBaromVisibWave heightAir tempDewpointWater temp
2018-Jun-22 11:34N 39°23' W 074°26'0 0.0
2018-Jun-22 11:28N 39°23' W 074°26'0 0.0
2018-Jun-22 10:46N 39°23' W 074°26'0 0.0
2018-Jun-22 10:22N 39°23' W 074°26'0 0.0
2018-Jun-22 09:52N 39°23' W 074°26'0 0.0
2018-Jun-22 09:22N 39°23' W 074°26'0 0.0
2018-Jun-22 07:10N 39°23' W 074°26'0 0.0
2018-Jun-22 06:58N 39°23' W 074°26'21 1.5
2018-Jun-21 17:12N 39°33' W 074°02'312.9
2018-Jun-21 16:59N 39°36' W 074°01'612.9
2018-Jun-21 16:30N 39°42' W 073°59'712.7
2018-Jun-21 15:59N 39°48' W 073°57'4512.0
2018-Jun-21 12:15N 40°33' W 074°02'414.8
2018-Jun-21 12:00N 40°37' W 074°03'611.8
2018-Jun-21 11:30N 40°43' W 074°02'0 0.9
2018-Jun-21 10:58N 40°43' W 074°03'0 0.0
2018-Jun-21 10:28N 40°43' W 074°03'0 0.0
2018-Jun-21 09:58N 40°43' W 074°03'0 0.0
2018-Jun-21 09:22N 40°43' W 074°03'0 0.0
2018-Jun-21 08:52N 40°43' W 074°03'0 0.0
2018-Jun-21 08:28N 40°43' W 074°03'0 0.0
2018-Jun-21 07:58N 40°43' W 074°03'0 0.0
2018-Jun-21 07:28N 40°43' W 074°03'0 0.0
2018-Jun-21 06:58N 40°43' W 074°03'0 0.0
2018-Jun-21 06:28N 40°43' W 074°03'0 0.0
2018-Jun-21 05:58N 40°43' W 074°03'0 0.0
2018-Jun-21 05:28N 40°43' W 074°03'0 0.0
2018-Jun-21 04:58N 40°43' W 074°03'0 0.0
2018-Jun-21 04:28N 40°43' W 074°03'0 0.0
2018-Jun-21 03:58N 40°43' W 074°03'0 0.0
2018-Jun-21 03:28N 40°43' W 074°03'0 0.0
2018-Jun-21 02:58N 40°43' W 074°03'0 0.0
2018-Jun-21 02:28N 40°43' W 074°03'0 0.0
2018-Jun-21 01:58N 40°43' W 074°03'0 0.0
2018-Jun-21 01:28N 40°43' W 074°03'0 0.0
2018-Jun-21 00:58N 40°43' W 074°03'0 0.0
2018-Jun-21 00:28N 40°43' W 074°03'  
2018-Jun-18 16:55N 40°43' W 074°03'0 0.0
2018-Jun-18 16:30N 40°43' W 074°03'0 0.0
2018-Jun-18 16:00N 40°43' W 074°03'0 0.0
2018-Jun-18 15:30N 40°43' W 074°03'0 0.0
2018-Jun-18 15:00N 40°43' W 074°03'0 0.0
2018-Jun-18 14:30N 40°43' W 074°03'0 0.0
2018-Jun-18 14:00N 40°43' W 074°03'0 0.0
2018-Jun-18 13:30N 40°43' W 074°03'0 0.0
2018-Jun-18 13:00N 40°43' W 074°03'0 0.0
2018-Jun-18 12:30N 40°43' W 074°03'0 0.0
2018-Jun-18 12:00N 40°43' W 074°03'0 0.0
2018-Jun-18 11:30N 40°43' W 074°03'1 2.4
2018-Jun-18 11:00N 40°42' W 074°01'712.4
2018-Jun-18 10:29N 40°47' W 073°55'1611.6
2018-Jun-18 09:07N 40°55' W 073°37'612.5
2018-Jun-18 08:37N 40°58' W 073°30'112.1
2018-Jun-18 08:30N 40°58' W 073°28'612.5
2018-Jun-18 08:00N 40°60' W 073°20'1612.9
2018-Jun-18 06:47N 41°03' W 072°60'2213.6
2018-Jun-18 05:11N 41°08' W 072°32'314.8
2018-Jun-18 05:00N 41°09' W 072°28'914.8
2018-Jun-18 04:25N 41°10' W 072°17'4 9.4
2018-Jun-18 03:57N 41°07' W 072°13'6 9.0
2018-Jun-18 03:17N 41°02' W 072°16'2 4.6
2018-Jun-18 02:53N 41°00' W 072°18'0 0.2
2018-Jun-18 02:09N 41°00' W 072°18'0 0.0
2018-Jun-18 01:44N 41°00' W 072°18'0 0.0
2018-Jun-18 01:29N 41°00' W 072°18'0 0.0
2018-Jun-18 00:59N 41°00' W 072°18'  
2018-Jun-15 09:24N 41°10' W 072°17'615.0
2018-Jun-15 09:00N 41°09' W 072°25'714.2
2018-Jun-15 08:29N 41°07' W 072°34'713.3
2018-Jun-15 07:56N 41°06' W 072°44'5712.4
2018-Jun-15 03:19N 40°47' W 073°55'3 9.8
2018-Jun-15 03:00N 40°45' W 073°58'4 7.3
2018-Jun-15 02:30N 40°42' W 074°02'1 1.8
2018-Jun-15 02:00N 40°43' W 074°03'0 0.0
2018-Jun-15 01:30N 40°43' W 074°03'0 0.0
2018-Jun-15 01:00N 40°43' W 074°03'0 0.0
2018-Jun-15 00:30N 40°43' W 074°03'0 0.0
2018-Jun-15 00:00N 40°43' W 074°03'0 0.0
2018-Jun-14 23:30N 40°43' W 074°03'0 0.0
2018-Jun-14 23:00N 40°43' W 074°03'0 0.0
2018-Jun-14 22:30N 40°43' W 074°03'0 0.0
2018-Jun-14 22:00N 40°43' W 074°03'0 0.0
2018-Jun-14 21:30N 40°43' W 074°03'0 0.0
2018-Jun-14 21:00N 40°43' W 074°03'0 0.0
2018-Jun-14 20:30N 40°43' W 074°03'0 0.0
2018-Jun-14 20:00N 40°43' W 074°03'1 1.9
2018-Jun-14 19:30N 40°42' W 074°02'5 9.8
2018-Jun-14 19:00N 40°37' W 074°03'5 9.3
2018-Jun-14 18:30N 40°32' W 074°02'54510.9
2018-Jun-12 16:18N 32°46' W 079°53'3 9.1
2018-Jun-12 16:00N 32°46' W 079°56'1 1.7
2018-Jun-12 15:30N 32°47' W 079°57'0 0.0
2018-Jun-12 15:01N 32°47' W 079°57'0 0.0
2018-Jun-12 14:30N 32°47' W 079°57'0 0.0
2018-Jun-12 14:00N 32°47' W 079°57'0 0.0
2018-Jun-12 13:30N 32°47' W 079°57'0 0.0
2018-Jun-12 13:00N 32°47' W 079°57'0 0.0
2018-Jun-12 12:30N 32°47' W 079°57'0 0.0
2018-Jun-12 12:00N 32°47' W 079°57'  
Track history (hours):
 
Tides and Currents Weather Stations Pressure Air Temp Water Temp Dewpoint Dewpoint Depression Visibility Wind Speed Wind Dir Waves Ship Positions

Incentive

Last reported at 2018-Jun-22 11:34 UTC. Time now 2018-Jun-23 15:47 UTC.
Position N 39°23' W 074°26'.

Length 43 m; draft 2.5 m.

Type: Pleasure craft. MMSI: 319795000.

Date/timePositionNaut miles runAvg speedWind from/ knotsBaromVisibWave heightAir tempDewpointWater temp
2018-Jun-22 11:34N 39°23' W 074°26'0 0.0
2018-Jun-22 11:28N 39°23' W 074°26'0 0.0
2018-Jun-22 10:46N 39°23' W 074°26'0 0.0
2018-Jun-22 10:22N 39°23' W 074°26'0 0.0
2018-Jun-22 09:52N 39°23' W 074°26'0 0.0
2018-Jun-22 09:22N 39°23' W 074°26'0 0.0
2018-Jun-22 07:10N 39°23' W 074°26'0 0.0
2018-Jun-22 06:58N 39°23' W 074°26'21 1.5
2018-Jun-21 17:12N 39°33' W 074°02'312.9
2018-Jun-21 16:59N 39°36' W 074°01'612.9
2018-Jun-21 16:30N 39°42' W 073°59'712.7
2018-Jun-21 15:59N 39°48' W 073°57'4512.0
2018-Jun-21 12:15N 40°33' W 074°02'414.8
2018-Jun-21 12:00N 40°37' W 074°03'611.8
2018-Jun-21 11:30N 40°43' W 074°02'0 0.9
2018-Jun-21 10:58N 40°43' W 074°03'0 0.0
2018-Jun-21 10:28N 40°43' W 074°03'0 0.0
2018-Jun-21 09:58N 40°43' W 074°03'0 0.0
2018-Jun-21 09:22N 40°43' W 074°03'0 0.0
2018-Jun-21 08:52N 40°43' W 074°03'0 0.0
2018-Jun-21 08:28N 40°43' W 074°03'0 0.0
2018-Jun-21 07:58N 40°43' W 074°03'0 0.0
2018-Jun-21 07:28N 40°43' W 074°03'0 0.0
2018-Jun-21 06:58N 40°43' W 074°03'0 0.0
2018-Jun-21 06:28N 40°43' W 074°03'0 0.0
2018-Jun-21 05:58N 40°43' W 074°03'0 0.0
2018-Jun-21 05:28N 40°43' W 074°03'0 0.0
2018-Jun-21 04:58N 40°43' W 074°03'0 0.0
2018-Jun-21 04:28N 40°43' W 074°03'0 0.0
2018-Jun-21 03:58N 40°43' W 074°03'0 0.0
2018-Jun-21 03:28N 40°43' W 074°03'0 0.0
2018-Jun-21 02:58N 40°43' W 074°03'0 0.0
2018-Jun-21 02:28N 40°43' W 074°03'0 0.0
2018-Jun-21 01:58N 40°43' W 074°03'0 0.0
2018-Jun-21 01:28N 40°43' W 074°03'0 0.0
2018-Jun-21 00:58N 40°43' W 074°03'0 0.0
2018-Jun-21 00:28N 40°43' W 074°03'  
2018-Jun-18 16:55N 40°43' W 074°03'0 0.0
2018-Jun-18 16:30N 40°43' W 074°03'0 0.0
2018-Jun-18 16:00N 40°43' W 074°03'0 0.0
2018-Jun-18 15:30N 40°43' W 074°03'0 0.0
2018-Jun-18 15:00N 40°43' W 074°03'0 0.0
2018-Jun-18 14:30N 40°43' W 074°03'0 0.0
2018-Jun-18 14:00N 40°43' W 074°03'0 0.0
2018-Jun-18 13:30N 40°43' W 074°03'0 0.0
2018-Jun-18 13:00N 40°43' W 074°03'0 0.0
2018-Jun-18 12:30N 40°43' W 074°03'0 0.0
2018-Jun-18 12:00N 40°43' W 074°03'0 0.0
2018-Jun-18 11:30N 40°43' W 074°03'1 2.4
2018-Jun-18 11:00N 40°42' W 074°01'712.4
2018-Jun-18 10:29N 40°47' W 073°55'1611.6
2018-Jun-18 09:07N 40°55' W 073°37'612.5
2018-Jun-18 08:37N 40°58' W 073°30'112.1
2018-Jun-18 08:30N 40°58' W 073°28'612.5
2018-Jun-18 08:00N 40°60' W 073°20'1612.9
2018-Jun-18 06:47N 41°03' W 072°60'2213.6
2018-Jun-18 05:11N 41°08' W 072°32'314.8
2018-Jun-18 05:00N 41°09' W 072°28'914.8
2018-Jun-18 04:25N 41°10' W 072°17'4 9.4
2018-Jun-18 03:57N 41°07' W 072°13'6 9.0
2018-Jun-18 03:17N 41°02' W 072°16'2 4.6
2018-Jun-18 02:53N 41°00' W 072°18'0 0.2
2018-Jun-18 02:09N 41°00' W 072°18'0 0.0
2018-Jun-18 01:44N 41°00' W 072°18'0 0.0
2018-Jun-18 01:29N 41°00' W 072°18'0 0.0
2018-Jun-18 00:59N 41°00' W 072°18'  
2018-Jun-15 09:24N 41°10' W 072°17'615.0
2018-Jun-15 09:00N 41°09' W 072°25'714.2
2018-Jun-15 08:29N 41°07' W 072°34'713.3
2018-Jun-15 07:56N 41°06' W 072°44'5712.4
2018-Jun-15 03:19N 40°47' W 073°55'3 9.8
2018-Jun-15 03:00N 40°45' W 073°58'4 7.3
2018-Jun-15 02:30N 40°42' W 074°02'1 1.8
2018-Jun-15 02:00N 40°43' W 074°03'0 0.0
2018-Jun-15 01:30N 40°43' W 074°03'0 0.0
2018-Jun-15 01:00N 40°43' W 074°03'0 0.0
2018-Jun-15 00:30N 40°43' W 074°03'0 0.0
2018-Jun-15 00:00N 40°43' W 074°03'0 0.0
2018-Jun-14 23:30N 40°43' W 074°03'0 0.0
2018-Jun-14 23:00N 40°43' W 074°03'0 0.0
2018-Jun-14 22:30N 40°43' W 074°03'0 0.0
2018-Jun-14 22:00N 40°43' W 074°03'0 0.0
2018-Jun-14 21:30N 40°43' W 074°03'0 0.0
2018-Jun-14 21:00N 40°43' W 074°03'0 0.0
2018-Jun-14 20:30N 40°43' W 074°03'0 0.0
2018-Jun-14 20:00N 40°43' W 074°03'1 1.9
2018-Jun-14 19:30N 40°42' W 074°02'5 9.8
2018-Jun-14 19:00N 40°37' W 074°03'5 9.3
2018-Jun-14 18:30N 40°32' W 074°02'54510.9
2018-Jun-12 16:18N 32°46' W 079°53'3 9.1
2018-Jun-12 16:00N 32°46' W 079°56'1 1.7
2018-Jun-12 15:30N 32°47' W 079°57'0 0.0
2018-Jun-12 15:01N 32°47' W 079°57'0 0.0
2018-Jun-12 14:30N 32°47' W 079°57'0 0.0
2018-Jun-12 14:00N 32°47' W 079°57'0 0.0
2018-Jun-12 13:30N 32°47' W 079°57'0 0.0
2018-Jun-12 13:00N 32°47' W 079°57'0 0.0
2018-Jun-12 12:30N 32°47' W 079°57'0 0.0
2018-Jun-12 12:00N 32°47' W 079°57'  

Dump ship's entire track history